KMYV/MYV METAR and TAF weather

Enter ICAO airport designator
Station Type Date Time Source
KMYV METAR 2020/07/11 23:53 UTC NOAA

KMYV 112353Z AUTO 19004KT 10SM CLR 39/M03 A2990 RMK AO2 SLP129 T03941033 10400 20328 58016


Station Type Date Time Source
KMYV Decoded METAR 2020/07/11 23:53 UTC NOAA

MARYSVILLE YUBA COUNTY, CA, United States (KMYV) 39-06N 121-34W 21M
Jul 11, 2020 - 07:53 PM EDT / 2020.07.11 2353 UTC
Wind: from the S (190 degrees) at 5 MPH (4 KT):0
Visibility: 10 mile(s):0
Sky conditions: clear
Temperature: 102.9 F (39.4 C)
Dew Point: 26.1 F (-3.3 C)
Relative Humidity: 6%
Pressure (altimeter): 29.9 in. Hg (1012 hPa)
Pressure tendency: 0.05 inches (1.6 hPa) lower than three hours ago
ob: KMYV 112353Z AUTO 19004KT 10SM CLR 39/M03 A2990 RMK AO2 SLP129 T03941033 10400 20328 58016
cycle: 0

Station Type Date Time Source
KMYV TAF UTC NOAA

Error!

Example: see airport list